sensor_id;sensor_type;location;lat;lon;timestamp;temperature;humidity
67557;DHT22;54387;53.526;49.300;2023-05-10T00:01:39;7.10;34.90
67557;DHT22;54387;53.526;49.300;2023-05-10T00:04:06;7.10;34.90
67557;DHT22;54387;53.526;49.300;2023-05-10T00:06:32;7.10;34.90
67557;DHT22;54387;53.526;49.300;2023-05-10T00:08:58;7.00;34.80
67557;DHT22;54387;53.526;49.300;2023-05-10T00:11:25;7.00;34.90
67557;DHT22;54387;53.526;49.300;2023-05-10T00:13:51;6.90;35.00
67557;DHT22;54387;53.526;49.300;2023-05-10T00:16:17;6.90;35.10
67557;DHT22;54387;53.526;49.300;2023-05-10T00:18:43;6.80;35.10
67557;DHT22;54387;53.526;49.300;2023-05-10T00:21:10;6.80;35.30
67557;DHT22;54387;53.526;49.300;2023-05-10T00:23:36;6.70;35.20
67557;DHT22;54387;53.526;49.300;2023-05-10T00:26:03;6.70;35.40
67557;DHT22;54387;53.526;49.300;2023-05-10T00:28:29;6.70;35.60
67557;DHT22;54387;53.526;49.300;2023-05-10T00:30:55;6.70;35.60
67557;DHT22;54387;53.526;49.300;2023-05-10T00:33:22;6.60;35.60
67557;DHT22;54387;53.526;49.300;2023-05-10T00:35:48;6.60;35.70
67557;DHT22;54387;53.526;49.300;2023-05-10T00:38:14;6.50;35.70
67557;DHT22;54387;53.526;49.300;2023-05-10T00:40:40;6.50;35.70
67557;DHT22;54387;53.526;49.300;2023-05-10T00:43:07;6.50;35.80
67557;DHT22;54387;53.526;49.300;2023-05-10T00:45:33;6.50;35.90
67557;DHT22;54387;53.526;49.300;2023-05-10T00:48:02;6.50;35.90
67557;DHT22;54387;53.526;49.300;2023-05-10T00:50:30;6.50;35.80
67557;DHT22;54387;53.526;49.300;2023-05-10T00:52:58;6.50;35.80
67557;DHT22;54387;53.526;49.300;2023-05-10T00:55:25;6.50;35.90
67557;DHT22;54387;53.526;49.300;2023-05-10T00:57:52;6.50;35.90
67557;DHT22;54387;53.526;49.300;2023-05-10T01:00:19;6.50;36.00
67557;DHT22;54387;53.526;49.300;2023-05-10T01:02:45;6.60;36.20
67557;DHT22;54387;53.526;49.300;2023-05-10T01:05:12;6.60;36.10
67557;DHT22;54387;53.526;49.300;2023-05-10T01:07:39;6.60;36.00
67557;DHT22;54387;53.526;49.300;2023-05-10T01:10:06;6.70;36.00
67557;DHT22;54387;53.526;49.300;2023-05-10T01:12:38;6.70;36.00
67557;DHT22;54387;53.526;49.300;2023-05-10T01:15:07;6.70;36.00
67557;DHT22;54387;53.526;49.300;2023-05-10T01:17:36;6.80;36.00
67557;DHT22;54387;53.526;49.300;2023-05-10T01:20:04;6.80;36.00
67557;DHT22;54387;53.526;49.300;2023-05-10T01:35:46;7.10;35.90
67557;DHT22;54387;53.526;49.300;2023-05-10T01:41:36;7.30;35.60
67557;DHT22;54387;53.526;49.300;2023-05-10T01:46:53;7.40;35.30
67557;DHT22;54387;53.526;49.300;2023-05-10T01:49:29;7.50;36.20
67557;DHT22;54387;53.526;49.300;2023-05-10T01:52:04;7.50;34.90
67557;DHT22;54387;53.526;49.300;2023-05-10T01:54:33;7.50;34.90
67557;DHT22;54387;53.526;49.300;2023-05-10T01:57:03;7.60;34.90
67557;DHT22;54387;53.526;49.300;2023-05-10T01:59:32;7.60;34.80
67557;DHT22;54387;53.526;49.300;2023-05-10T02:02:02;7.70;34.80
67557;DHT22;54387;53.526;49.300;2023-05-10T02:04:31;7.70;34.70
67557;DHT22;54387;53.526;49.300;2023-05-10T02:06:59;7.80;34.90
67557;DHT22;54387;53.526;49.300;2023-05-10T02:09:27;7.80;34.80
67557;DHT22;54387;53.526;49.300;2023-05-10T02:11:55;7.90;34.90
67557;DHT22;54387;53.526;49.300;2023-05-10T02:14:22;7.90;34.90
67557;DHT22;54387;53.526;49.300;2023-05-10T02:16:51;8.00;35.00
67557;DHT22;54387;53.526;49.300;2023-05-10T02:19:18;8.00;35.00
67557;DHT22;54387;53.526;49.300;2023-05-10T02:21:46;8.10;35.00
67557;DHT22;54387;53.526;49.300;2023-05-10T02:24:14;8.10;34.70
67557;DHT22;54387;53.526;49.300;2023-05-10T02:26:42;8.10;34.70
67557;DHT22;54387;53.526;49.300;2023-05-10T02:29:10;8.30;34.90
67557;DHT22;54387;53.526;49.300;2023-05-10T02:31:38;8.30;34.90
67557;DHT22;54387;53.526;49.300;2023-05-10T02:34:06;8.40;35.00
67557;DHT22;54387;53.526;49.300;2023-05-10T02:36:33;8.50;34.90
67557;DHT22;54387;53.526;49.300;2023-05-10T02:39:01;8.60;34.90
67557;DHT22;54387;53.526;49.300;2023-05-10T02:41:28;8.60;34.70
67557;DHT22;54387;53.526;49.300;2023-05-10T02:43:59;8.60;34.60
67557;DHT22;54387;53.526;49.300;2023-05-10T02:46:26;8.70;34.70
67557;DHT22;54387;53.526;49.300;2023-05-10T02:48:52;8.70;34.70
67557;DHT22;54387;53.526;49.300;2023-05-10T02:51:19;8.80;34.80
67557;DHT22;54387;53.526;49.300;2023-05-10T02:53:48;8.90;34.70
67557;DHT22;54387;53.526;49.300;2023-05-10T02:56:28;8.90;34.40
67557;DHT22;54387;53.526;49.300;2023-05-10T02:58:57;8.90;34.50
67557;DHT22;54387;53.526;49.300;2023-05-10T03:01:23;8.90;34.60
67557;DHT22;54387;53.526;49.300;2023-05-10T03:03:50;8.90;34.60
67557;DHT22;54387;53.526;49.300;2023-05-10T03:06:16;9.00;34.70
67557;DHT22;54387;53.526;49.300;2023-05-10T03:08:44;9.10;34.60
67557;DHT22;54387;53.526;49.300;2023-05-10T03:11:34;9.20;34.60
67557;DHT22;54387;53.526;49.300;2023-05-10T03:16:41;9.30;34.60
67557;DHT22;54387;53.526;49.300;2023-05-10T03:19:24;9.50;34.60
67557;DHT22;54387;53.526;49.300;2023-05-10T03:21:53;9.60;34.40
67557;DHT22;54387;53.526;49.300;2023-05-10T03:24:23;9.80;34.30
67557;DHT22;54387;53.526;49.300;2023-05-10T03:26:54;9.80;34.00
67557;DHT22;54387;53.526;49.300;2023-05-10T03:29:23;9.90;33.80
67557;DHT22;54387;53.526;49.300;2023-05-10T03:31:51;10.10;33.70
67557;DHT22;54387;53.526;49.300;2023-05-10T03:34:23;10.10;33.50
67557;DHT22;54387;53.526;49.300;2023-05-10T03:36:50;10.30;33.30
67557;DHT22;54387;53.526;49.300;2023-05-10T03:39:16;10.40;33.10
67557;DHT22;54387;53.526;49.300;2023-05-10T03:41:42;10.50;32.90
67557;DHT22;54387;53.526;49.300;2023-05-10T03:44:09;10.50;32.90
67557;DHT22;54387;53.526;49.300;2023-05-10T03:46:35;10.70;32.80
67557;DHT22;54387;53.526;49.300;2023-05-10T03:49:01;10.80;32.70
67557;DHT22;54387;53.526;49.300;2023-05-10T03:51:27;10.90;32.70
67557;DHT22;54387;53.526;49.300;2023-05-10T03:53:57;11.00;32.80
67557;DHT22;54387;53.526;49.300;2023-05-10T03:56:23;11.10;32.50
67557;DHT22;54387;53.526;49.300;2023-05-10T03:58:49;11.10;32.40
67557;DHT22;54387;53.526;49.300;2023-05-10T04:01:15;11.20;32.30
67557;DHT22;54387;53.526;49.300;2023-05-10T04:03:41;11.40;32.20
67557;DHT22;54387;53.526;49.300;2023-05-10T04:06:07;11.50;32.20
67557;DHT22;54387;53.526;49.300;2023-05-10T04:08:37;11.70;32.10
67557;DHT22;54387;53.526;49.300;2023-05-10T04:11:08;11.80;31.90
67557;DHT22;54387;53.526;49.300;2023-05-10T04:13:34;11.90;31.70
67557;DHT22;54387;53.526;49.300;2023-05-10T04:16:01;12.00;31.60
67557;DHT22;54387;53.526;49.300;2023-05-10T04:18:27;12.10;31.30
67557;DHT22;54387;53.526;49.300;2023-05-10T04:20:54;12.20;30.80
67557;DHT22;54387;53.526;49.300;2023-05-10T04:23:20;12.20;30.90
67557;DHT22;54387;53.526;49.300;2023-05-10T04:25:46;12.30;30.80
67557;DHT22;54387;53.526;49.300;2023-05-10T04:28:13;12.40;30.50
67557;DHT22;54387;53.526;49.300;2023-05-10T04:30:39;12.50;30.30
67557;DHT22;54387;53.526;49.300;2023-05-10T04:33:06;12.60;30.10
67557;DHT22;54387;53.526;49.300;2023-05-10T04:35:33;12.70;29.30
67557;DHT22;54387;53.526;49.300;2023-05-10T04:38:00;12.80;28.40
67557;DHT22;54387;53.526;49.300;2023-05-10T04:40:26;12.80;28.50
67557;DHT22;54387;53.526;49.300;2023-05-10T04:42:53;12.90;28.30
67557;DHT22;54387;53.526;49.300;2023-05-10T04:45:20;13.00;27.80
67557;DHT22;54387;53.526;49.300;2023-05-10T04:47:46;13.00;27.60
67557;DHT22;54387;53.526;49.300;2023-05-10T04:50:14;13.10;27.80
67557;DHT22;54387;53.526;49.300;2023-05-10T04:52:41;13.10;27.60
67557;DHT22;54387;53.526;49.300;2023-05-10T04:55:08;13.20;27.40
67557;DHT22;54387;53.526;49.300;2023-05-10T04:57:36;13.20;27.20
67557;DHT22;54387;53.526;49.300;2023-05-10T05:00:03;13.20;26.80
67557;DHT22;54387;53.526;49.300;2023-05-10T05:02:30;13.20;27.00
67557;DHT22;54387;53.526;49.300;2023-05-10T05:04:57;13.20;26.90
67557;DHT22;54387;53.526;49.300;2023-05-10T05:07:24;13.30;26.80
67557;DHT22;54387;53.526;49.300;2023-05-10T05:09:50;13.30;26.70
67557;DHT22;54387;53.526;49.300;2023-05-10T05:12:17;13.30;26.80
67557;DHT22;54387;53.526;49.300;2023-05-10T05:14:43;13.30;27.10
67557;DHT22;54387;53.526;49.300;2023-05-10T05:17:10;13.40;27.10
67557;DHT22;54387;53.526;49.300;2023-05-10T05:19:36;13.50;26.90
67557;DHT22;54387;53.526;49.300;2023-05-10T05:22:03;13.60;26.80
67557;DHT22;54387;53.526;49.300;2023-05-10T05:24:29;13.70;26.70
67557;DHT22;54387;53.526;49.300;2023-05-10T05:26:55;13.70;26.50
67557;DHT22;54387;53.526;49.300;2023-05-10T05:29:21;13.80;26.50
67557;DHT22;54387;53.526;49.300;2023-05-10T05:31:47;13.80;27.10
67557;DHT22;54387;53.526;49.300;2023-05-10T05:34:14;13.90;26.40
67557;DHT22;54387;53.526;49.300;2023-05-10T05:36:40;14.00;26.20
67557;DHT22;54387;53.526;49.300;2023-05-10T05:39:06;14.00;26.30
67557;DHT22;54387;53.526;49.300;2023-05-10T05:41:33;14.00;26.30
67557;DHT22;54387;53.526;49.300;2023-05-10T05:43:59;14.10;26.60
67557;DHT22;54387;53.526;49.300;2023-05-10T05:46:25;14.10;26.00
67557;DHT22;54387;53.526;49.300;2023-05-10T05:48:51;14.10;25.70
67557;DHT22;54387;53.526;49.300;2023-05-10T05:51:18;14.20;26.00
67557;DHT22;54387;53.526;49.300;2023-05-10T05:53:44;14.30;25.60
67557;DHT22;54387;53.526;49.300;2023-05-10T05:56:11;14.30;25.70
67557;DHT22;54387;53.526;49.300;2023-05-10T05:58:37;14.40;25.10
67557;DHT22;54387;53.526;49.300;2023-05-10T06:01:04;14.50;25.20
67557;DHT22;54387;53.526;49.300;2023-05-10T06:03:30;14.60;24.60
67557;DHT22;54387;53.526;49.300;2023-05-10T06:05:56;14.60;24.20
67557;DHT22;54387;53.526;49.300;2023-05-10T06:08:23;14.70;24.50
67557;DHT22;54387;53.526;49.300;2023-05-10T06:10:49;14.80;24.40
67557;DHT22;54387;53.526;49.300;2023-05-10T06:13:15;14.90;24.30
67557;DHT22;54387;53.526;49.300;2023-05-10T06:15:42;15.10;23.50
67557;DHT22;54387;53.526;49.300;2023-05-10T06:18:10;15.00;23.10
67557;DHT22;54387;53.526;49.300;2023-05-10T06:20:40;15.00;23.30
67557;DHT22;54387;53.526;49.300;2023-05-10T06:23:07;15.00;23.30
67557;DHT22;54387;53.526;49.300;2023-05-10T06:25:34;15.10;23.30
67557;DHT22;54387;53.526;49.300;2023-05-10T06:28:00;15.10;23.20
67557;DHT22;54387;53.526;49.300;2023-05-10T06:30:28;15.20;23.10
67557;DHT22;54387;53.526;49.300;2023-05-10T06:32:55;15.20;23.30
67557;DHT22;54387;53.526;49.300;2023-05-10T06:35:21;15.30;23.30
67557;DHT22;54387;53.526;49.300;2023-05-10T06:37:48;15.30;22.90
67557;DHT22;54387;53.526;49.300;2023-05-10T06:40:15;15.20;22.70
67557;DHT22;54387;53.526;49.300;2023-05-10T06:42:41;15.00;22.90
67557;DHT22;54387;53.526;49.300;2023-05-10T06:45:08;15.00;23.10
67557;DHT22;54387;53.526;49.300;2023-05-10T06:47:35;15.00;23.40
67557;DHT22;54387;53.526;49.300;2023-05-10T06:50:01;15.00;23.20
67557;DHT22;54387;53.526;49.300;2023-05-10T06:52:27;15.10;23.20
67557;DHT22;54387;53.526;49.300;2023-05-10T06:54:54;15.20;23.30
67557;DHT22;54387;53.526;49.300;2023-05-10T06:57:20;15.20;23.10
67557;DHT22;54387;53.526;49.300;2023-05-10T06:59:47;15.30;22.90
67557;DHT22;54387;53.526;49.300;2023-05-10T07:02:13;15.30;22.60
67557;DHT22;54387;53.526;49.300;2023-05-10T07:04:40;15.20;22.20
67557;DHT22;54387;53.526;49.300;2023-05-10T07:07:07;15.20;22.50
67557;DHT22;54387;53.526;49.300;2023-05-10T07:09:33;15.10;22.40
67557;DHT22;54387;53.526;49.300;2023-05-10T07:11:59;15.10;22.50
67557;DHT22;54387;53.526;49.300;2023-05-10T07:14:25;15.10;22.50
67557;DHT22;54387;53.526;49.300;2023-05-10T07:16:55;15.00;22.60
67557;DHT22;54387;53.526;49.300;2023-05-10T07:19:22;15.10;22.60
67557;DHT22;54387;53.526;49.300;2023-05-10T07:21:48;15.00;21.80
67557;DHT22;54387;53.526;49.300;2023-05-10T07:24:14;14.90;21.70
67557;DHT22;54387;53.526;49.300;2023-05-10T07:26:40;15.00;22.00
67557;DHT22;54387;53.526;49.300;2023-05-10T07:29:07;15.00;22.30
67557;DHT22;54387;53.526;49.300;2023-05-10T07:31:33;15.10;22.30
67557;DHT22;54387;53.526;49.300;2023-05-10T07:34:05;15.10;21.70
67557;DHT22;54387;53.526;49.300;2023-05-10T07:36:37;15.20;21.40
67557;DHT22;54387;53.526;49.300;2023-05-10T07:39:04;15.20;21.50
67557;DHT22;54387;53.526;49.300;2023-05-10T07:41:30;15.30;21.80
67557;DHT22;54387;53.526;49.300;2023-05-10T07:43:56;15.50;21.80
67557;DHT22;54387;53.526;49.300;2023-05-10T07:46:23;15.70;21.60
67557;DHT22;54387;53.526;49.300;2023-05-10T07:48:49;15.80;21.30
67557;DHT22;54387;53.526;49.300;2023-05-10T07:51:15;15.90;21.50
67557;DHT22;54387;53.526;49.300;2023-05-10T07:53:41;16.00;21.50
67557;DHT22;54387;53.526;49.300;2023-05-10T07:58:48;16.20;21.50
67557;DHT22;54387;53.526;49.300;2023-05-10T08:01:14;16.30;21.40
67557;DHT22;54387;53.526;49.300;2023-05-10T08:03:40;16.40;21.10
67557;DHT22;54387;53.526;49.300;2023-05-10T08:06:06;16.40;21.10
67557;DHT22;54387;53.526;49.300;2023-05-10T08:08:32;16.40;21.40
67557;DHT22;54387;53.526;49.300;2023-05-10T08:10:59;16.60;21.20
67557;DHT22;54387;53.526;49.300;2023-05-10T08:13:25;16.80;21.10
67557;DHT22;54387;53.526;49.300;2023-05-10T08:15:51;17.00;20.80
67557;DHT22;54387;53.526;49.300;2023-05-10T08:18:19;17.10;20.50
67557;DHT22;54387;53.526;49.300;2023-05-10T08:20:45;17.20;20.40
67557;DHT22;54387;53.526;49.300;2023-05-10T08:23:14;17.30;20.40
67557;DHT22;54387;53.526;49.300;2023-05-10T08:25:41;17.40;20.10
67557;DHT22;54387;53.526;49.300;2023-05-10T08:28:07;17.50;20.10
67557;DHT22;54387;53.526;49.300;2023-05-10T08:30:33;17.70;19.90
67557;DHT22;54387;53.526;49.300;2023-05-10T08:32:59;17.80;20.00
67557;DHT22;54387;53.526;49.300;2023-05-10T08:35:26;18.00;19.70
67557;DHT22;54387;53.526;49.300;2023-05-10T08:37:52;18.10;19.40
67557;DHT22;54387;53.526;49.300;2023-05-10T08:40:19;18.20;19.40
67557;DHT22;54387;53.526;49.300;2023-05-10T08:43:06;18.40;19.50
67557;DHT22;54387;53.526;49.300;2023-05-10T08:45:36;18.70;19.60
67557;DHT22;54387;53.526;49.300;2023-05-10T08:48:05;19.10;19.50
67557;DHT22;54387;53.526;49.300;2023-05-10T08:50:32;19.40;19.10
67557;DHT22;54387;53.526;49.300;2023-05-10T08:53:00;19.70;18.60
67557;DHT22;54387;53.526;49.300;2023-05-10T08:55:27;19.80;18.50
67557;DHT22;54387;53.526;49.300;2023-05-10T08:57:54;20.10;18.40
67557;DHT22;54387;53.526;49.300;2023-05-10T09:00:21;20.30;18.40
67557;DHT22;54387;53.526;49.300;2023-05-10T09:02:49;20.40;18.00
67557;DHT22;54387;53.526;49.300;2023-05-10T09:05:16;20.40;18.10
67557;DHT22;54387;53.526;49.300;2023-05-10T09:07:43;20.70;18.20
67557;DHT22;54387;53.526;49.300;2023-05-10T09:10:11;21.00;17.80
67557;DHT22;54387;53.526;49.300;2023-05-10T09:12:37;21.00;17.70
67557;DHT22;54387;53.526;49.300;2023-05-10T09:15:05;21.00;17.70
67557;DHT22;54387;53.526;49.300;2023-05-10T09:17:33;21.00;17.90
67557;DHT22;54387;53.526;49.300;2023-05-10T09:20:02;21.30;17.80
67557;DHT22;54387;53.526;49.300;2023-05-10T09:22:33;21.80;17.70
67557;DHT22;54387;53.526;49.300;2023-05-10T09:25:13;22.40;17.30
67557;DHT22;54387;53.526;49.300;2023-05-10T09:27:44;23.30;17.20
67557;DHT22;54387;53.526;49.300;2023-05-10T09:30:15;24.60;16.80
67557;DHT22;54387;53.526;49.300;2023-05-10T09:32:43;26.40;16.50
67557;DHT22;54387;53.526;49.300;2023-05-10T09:35:15;28.10;15.70
67557;DHT22;54387;53.526;49.300;2023-05-10T09:37:45;29.40;15.00
67557;DHT22;54387;53.526;49.300;2023-05-10T09:42:56;32.80;14.10
67557;DHT22;54387;53.526;49.300;2023-05-10T09:45:24;34.20;13.60
67557;DHT22;54387;53.526;49.300;2023-05-10T09:47:51;35.40;13.30
67557;DHT22;54387;53.526;49.300;2023-05-10T09:50:18;36.20;13.50
67557;DHT22;54387;53.526;49.300;2023-05-10T09:52:56;36.50;12.90
67557;DHT22;54387;53.526;49.300;2023-05-10T09:55:26;37.20;12.90
67557;DHT22;54387;53.526;49.300;2023-05-10T09:58:03;37.80;12.60
67557;DHT22;54387;53.526;49.300;2023-05-10T10:00:39;38.40;12.70
67557;DHT22;54387;53.526;49.300;2023-05-10T10:03:05;39.40;12.40
67557;DHT22;54387;53.526;49.300;2023-05-10T10:05:35;38.60;12.10
67557;DHT22;54387;53.526;49.300;2023-05-10T10:08:05;37.20;12.20
67557;DHT22;54387;53.526;49.300;2023-05-10T10:10:33;36.80;12.20
67557;DHT22;54387;53.526;49.300;2023-05-10T10:12:59;37.70;12.40
67557;DHT22;54387;53.526;49.300;2023-05-10T10:15:29;39.00;12.20
67557;DHT22;54387;53.526;49.300;2023-05-10T10:17:55;38.80;11.90
67557;DHT22;54387;53.526;49.300;2023-05-10T10:20:22;37.30;11.70
67557;DHT22;54387;53.526;49.300;2023-05-10T10:22:49;36.10;12.10
67557;DHT22;54387;53.526;49.300;2023-05-10T10:25:17;36.10;12.30
67557;DHT22;54387;53.526;49.300;2023-05-10T10:30:40;38.20;12.00
67557;DHT22;54387;53.526;49.300;2023-05-10T10:36:12;38.20;11.90
67557;DHT22;54387;53.526;49.300;2023-05-10T10:41:34;38.60;11.90
67557;DHT22;54387;53.526;49.300;2023-05-10T10:47:07;39.50;11.80
67557;DHT22;54387;53.526;49.300;2023-05-10T10:57:31;34.70;11.90
67557;DHT22;54387;53.526;49.300;2023-05-10T11:03:10;33.30;12.30
67557;DHT22;54387;53.526;49.300;2023-05-10T11:08:13;31.90;12.40
67557;DHT22;54387;53.526;49.300;2023-05-10T11:10:48;31.50;12.50
67557;DHT22;54387;53.526;49.300;2023-05-10T11:16:22;31.20;12.60
67557;DHT22;54387;53.526;49.300;2023-05-10T11:19:06;30.60;12.60
67557;DHT22;54387;53.526;49.300;2023-05-10T11:21:36;29.70;13.10
67557;DHT22;54387;53.526;49.300;2023-05-10T11:24:19;28.90;13.10
67557;DHT22;54387;53.526;49.300;2023-05-10T11:26:48;29.30;13.40
67557;DHT22;54387;53.526;49.300;2023-05-10T11:29:16;29.80;13.00
67557;DHT22;54387;53.526;49.300;2023-05-10T11:31:44;29.70;12.80
67557;DHT22;54387;53.526;49.300;2023-05-10T11:34:27;29.10;12.80
67557;DHT22;54387;53.526;49.300;2023-05-10T11:36:57;28.20;12.90
67557;DHT22;54387;53.526;49.300;2023-05-10T11:39:28;27.40;13.30
67557;DHT22;54387;53.526;49.300;2023-05-10T11:41:55;27.10;13.70
67557;DHT22;54387;53.526;49.300;2023-05-10T11:44:21;26.80;13.40
67557;DHT22;54387;53.526;49.300;2023-05-10T11:46:48;26.80;13.90
67557;DHT22;54387;53.526;49.300;2023-05-10T11:49:15;27.00;13.80
67557;DHT22;54387;53.526;49.300;2023-05-10T11:51:41;27.50;13.70
67557;DHT22;54387;53.526;49.300;2023-05-10T11:54:10;27.80;13.50
67557;DHT22;54387;53.526;49.300;2023-05-10T11:56:40;27.80;13.30
67557;DHT22;54387;53.526;49.300;2023-05-10T11:59:06;27.30;13.30
67557;DHT22;54387;53.526;49.300;2023-05-10T12:01:34;26.90;13.50
67557;DHT22;54387;53.526;49.300;2023-05-10T12:04:04;26.70;13.60
67557;DHT22;54387;53.526;49.300;2023-05-10T12:06:32;26.80;13.80
67557;DHT22;54387;53.526;49.300;2023-05-10T12:09:05;27.40;14.00
67557;DHT22;54387;53.526;49.300;2023-05-10T12:11:35;28.00;13.50
67557;DHT22;54387;53.526;49.300;2023-05-10T12:14:04;28.20;13.50
67557;DHT22;54387;53.526;49.300;2023-05-10T12:16:31;28.50;13.50
67557;DHT22;54387;53.526;49.300;2023-05-10T12:18:59;29.10;13.20
67557;DHT22;54387;53.526;49.300;2023-05-10T12:21:28;30.20;13.40
67557;DHT22;54387;53.526;49.300;2023-05-10T12:23:58;31.10;13.00
67557;DHT22;54387;53.526;49.300;2023-05-10T12:26:25;31.10;12.70
67557;DHT22;54387;53.526;49.300;2023-05-10T12:29:11;30.50;12.90
67557;DHT22;54387;53.526;49.300;2023-05-10T12:31:57;29.70;12.70
67557;DHT22;54387;53.526;49.300;2023-05-10T12:34:34;29.00;13.10
67557;DHT22;54387;53.526;49.300;2023-05-10T12:37:02;29.70;13.30
67557;DHT22;54387;53.526;49.300;2023-05-10T12:39:40;31.20;12.70
67557;DHT22;54387;53.526;49.300;2023-05-10T12:42:07;31.60;12.70
67557;DHT22;54387;53.526;49.300;2023-05-10T12:44:33;31.10;12.70
67557;DHT22;54387;53.526;49.300;2023-05-10T12:46:59;30.30;12.70
67557;DHT22;54387;53.526;49.300;2023-05-10T12:49:26;29.20;12.70
67557;DHT22;54387;53.526;49.300;2023-05-10T12:51:52;28.10;13.00
67557;DHT22;54387;53.526;49.300;2023-05-10T12:54:18;27.00;13.40
67557;DHT22;54387;53.526;49.300;2023-05-10T12:56:44;26.00;13.60
67557;DHT22;54387;53.526;49.300;2023-05-10T12:59:10;25.30;14.10
67557;DHT22;54387;53.526;49.300;2023-05-10T13:01:36;24.80;14.30
67557;DHT22;54387;53.526;49.300;2023-05-10T13:04:02;24.20;14.60
67557;DHT22;54387;53.526;49.300;2023-05-10T13:06:29;23.80;14.70
67557;DHT22;54387;53.526;49.300;2023-05-10T13:08:55;23.40;14.80
67557;DHT22;54387;53.526;49.300;2023-05-10T13:11:23;23.00;15.00
67557;DHT22;54387;53.526;49.300;2023-05-10T13:13:49;22.70;15.20
67557;DHT22;54387;53.526;49.300;2023-05-10T13:16:16;22.40;15.50
67557;DHT22;54387;53.526;49.300;2023-05-10T13:18:44;22.20;15.70
67557;DHT22;54387;53.526;49.300;2023-05-10T13:21:10;22.20;15.70
67557;DHT22;54387;53.526;49.300;2023-05-10T13:23:37;22.30;15.70
67557;DHT22;54387;53.526;49.300;2023-05-10T13:26:04;22.40;15.50
67557;DHT22;54387;53.526;49.300;2023-05-10T13:28:30;22.50;15.50
67557;DHT22;54387;53.526;49.300;2023-05-10T13:30:57;22.60;15.60
67557;DHT22;54387;53.526;49.300;2023-05-10T13:33:26;22.60;15.70
67557;DHT22;54387;53.526;49.300;2023-05-10T13:35:52;22.60;15.70
67557;DHT22;54387;53.526;49.300;2023-05-10T13:38:18;22.50;15.70
67557;DHT22;54387;53.526;49.300;2023-05-10T13:40:45;22.40;15.50
67557;DHT22;54387;53.526;49.300;2023-05-10T13:43:11;22.30;15.50
67557;DHT22;54387;53.526;49.300;2023-05-10T13:45:38;22.20;15.70
67557;DHT22;54387;53.526;49.300;2023-05-10T13:48:05;22.10;15.80
67557;DHT22;54387;53.526;49.300;2023-05-10T13:50:32;21.90;15.90
67557;DHT22;54387;53.526;49.300;2023-05-10T13:52:58;21.80;15.90
67557;DHT22;54387;53.526;49.300;2023-05-10T13:55:29;21.60;16.00
67557;DHT22;54387;53.526;49.300;2023-05-10T13:57:56;21.40;16.00
67557;DHT22;54387;53.526;49.300;2023-05-10T14:00:24;21.10;16.00
67557;DHT22;54387;53.526;49.300;2023-05-10T14:02:50;20.90;16.20
67557;DHT22;54387;53.526;49.300;2023-05-10T14:05:17;20.70;16.30
67557;DHT22;54387;53.526;49.300;2023-05-10T14:07:43;20.60;16.30
67557;DHT22;54387;53.526;49.300;2023-05-10T14:10:09;20.60;16.30
67557;DHT22;54387;53.526;49.300;2023-05-10T14:12:36;20.90;16.30
67557;DHT22;54387;53.526;49.300;2023-05-10T14:15:03;21.30;16.00
67557;DHT22;54387;53.526;49.300;2023-05-10T14:17:32;22.00;15.80
67557;DHT22;54387;53.526;49.300;2023-05-10T14:19:58;22.30;15.30
67557;DHT22;54387;53.526;49.300;2023-05-10T14:22:25;22.20;15.40
67557;DHT22;54387;53.526;49.300;2023-05-10T14:24:51;22.00;15.30
67557;DHT22;54387;53.526;49.300;2023-05-10T14:27:17;21.50;15.50
67557;DHT22;54387;53.526;49.300;2023-05-10T14:29:43;21.10;15.90
67557;DHT22;54387;53.526;49.300;2023-05-10T14:32:10;20.70;16.10
67557;DHT22;54387;53.526;49.300;2023-05-10T14:34:36;20.30;16.20
67557;DHT22;54387;53.526;49.300;2023-05-10T14:37:02;20.00;16.50
67557;DHT22;54387;53.526;49.300;2023-05-10T14:39:28;19.70;17.10
67557;DHT22;54387;53.526;49.300;2023-05-10T14:41:56;19.80;17.90
67557;DHT22;54387;53.526;49.300;2023-05-10T14:44:22;19.90;17.70
67557;DHT22;54387;53.526;49.300;2023-05-10T14:46:49;20.10;17.70
67557;DHT22;54387;53.526;49.300;2023-05-10T14:49:15;20.10;17.20
67557;DHT22;54387;53.526;49.300;2023-05-10T14:51:42;20.10;17.10
67557;DHT22;54387;53.526;49.300;2023-05-10T14:54:08;19.90;17.00
67557;DHT22;54387;53.526;49.300;2023-05-10T14:56:34;19.60;17.20
67557;DHT22;54387;53.526;49.300;2023-05-10T14:59:00;19.30;17.30
67557;DHT22;54387;53.526;49.300;2023-05-10T15:01:27;19.00;17.60
67557;DHT22;54387;53.526;49.300;2023-05-10T15:03:53;18.80;17.90
67557;DHT22;54387;53.526;49.300;2023-05-10T15:06:23;18.50;18.00
67557;DHT22;54387;53.526;49.300;2023-05-10T15:08:51;18.30;18.30
67557;DHT22;54387;53.526;49.300;2023-05-10T15:11:17;18.10;18.40
67557;DHT22;54387;53.526;49.300;2023-05-10T15:13:43;17.90;18.60
67557;DHT22;54387;53.526;49.300;2023-05-10T15:16:12;17.80;18.60
67557;DHT22;54387;53.526;49.300;2023-05-10T15:18:38;17.70;18.80
67557;DHT22;54387;53.526;49.300;2023-05-10T15:21:05;17.60;19.10
67557;DHT22;54387;53.526;49.300;2023-05-10T15:23:31;17.40;19.20
67557;DHT22;54387;53.526;49.300;2023-05-10T15:25:58;17.30;19.30
67557;DHT22;54387;53.526;49.300;2023-05-10T15:28:24;17.30;19.60
67557;DHT22;54387;53.526;49.300;2023-05-10T15:30:50;17.20;19.60
67557;DHT22;54387;53.526;49.300;2023-05-10T15:33:17;17.20;19.80
67557;DHT22;54387;53.526;49.300;2023-05-10T15:35:43;17.10;20.10
67557;DHT22;54387;53.526;49.300;2023-05-10T15:38:09;17.00;20.30
67557;DHT22;54387;53.526;49.300;2023-05-10T15:40:36;16.90;20.60
67557;DHT22;54387;53.526;49.300;2023-05-10T15:43:02;16.90;20.80
67557;DHT22;54387;53.526;49.300;2023-05-10T15:45:28;16.80;21.20
67557;DHT22;54387;53.526;49.300;2023-05-10T15:47:55;16.70;21.30
67557;DHT22;54387;53.526;49.300;2023-05-10T15:50:21;16.50;21.50
67557;DHT22;54387;53.526;49.300;2023-05-10T15:52:47;16.40;21.70
67557;DHT22;54387;53.526;49.300;2023-05-10T15:55:14;16.30;22.10
67557;DHT22;54387;53.526;49.300;2023-05-10T15:57:41;16.10;22.20
67557;DHT22;54387;53.526;49.300;2023-05-10T16:00:09;16.00;22.40
67557;DHT22;54387;53.526;49.300;2023-05-10T16:02:36;15.90;22.60
67557;DHT22;54387;53.526;49.300;2023-05-10T16:05:03;15.70;22.80
67557;DHT22;54387;53.526;49.300;2023-05-10T16:07:29;15.70;23.10
67557;DHT22;54387;53.526;49.300;2023-05-10T16:09:55;15.60;23.30
67557;DHT22;54387;53.526;49.300;2023-05-10T16:12:21;15.50;23.40
67557;DHT22;54387;53.526;49.300;2023-05-10T16:14:48;15.30;23.60
67557;DHT22;54387;53.526;49.300;2023-05-10T16:17:14;15.20;23.80
67557;DHT22;54387;53.526;49.300;2023-05-10T16:19:40;15.10;23.80